createdAt,value
2022-11-13T00:01:52.454Z,13.80
2022-11-13T00:03:54.170Z,12.30
2022-11-13T00:06:00.613Z,13.17
2022-11-13T00:08:02.495Z,12.52
2022-11-13T00:10:04.714Z,11.45
2022-11-13T00:12:06.477Z,11.52
2022-11-13T00:14:08.725Z,12.67
2022-11-13T00:16:13.651Z,11.85
2022-11-13T00:18:15.356Z,12.80
2022-11-13T00:20:18.426Z,11.95
2022-11-13T00:24:21.797Z,11.77
2022-11-13T00:26:29.098Z,13.03
2022-11-13T00:28:31.027Z,12.32
2022-11-13T00:30:32.783Z,12.65
2022-11-13T00:32:34.542Z,12.98
2022-11-13T00:34:51.521Z,13.07
2022-11-13T00:36:53.209Z,13.27
2022-11-13T00:38:55.652Z,13.93
2022-11-13T00:40:57.883Z,13.88
2022-11-13T00:42:59.574Z,13.32
2022-11-13T00:45:01.269Z,14.67
2022-11-13T00:47:03.020Z,15.73
2022-11-13T00:49:05.193Z,13.97
2022-11-13T00:51:07.196Z,12.80
2022-11-13T00:53:11.560Z,13.27
2022-11-13T00:55:15.795Z,14.93
2022-11-13T00:57:17.565Z,15.40
2022-11-13T00:59:19.319Z,13.47
2022-11-13T01:01:21.317Z,13.53
2022-11-13T01:03:23.031Z,13.20
2022-11-13T01:05:25.102Z,15.02
2022-11-13T01:07:26.866Z,12.20
2022-11-13T01:09:28.628Z,12.10
2022-11-13T01:11:31.007Z,14.23
2022-11-13T01:13:32.850Z,12.57
2022-11-13T01:15:34.630Z,12.68
2022-11-13T01:17:36.794Z,12.77
2022-11-13T01:19:38.778Z,12.77
2022-11-13T01:21:40.534Z,12.65
2022-11-13T01:23:42.903Z,12.53
2022-11-13T01:25:44.635Z,12.65
2022-11-13T01:27:46.324Z,12.47
2022-11-13T01:29:48.108Z,12.57
2022-11-13T01:31:49.830Z,12.20
2022-11-13T01:33:51.728Z,13.00
2022-11-13T01:35:59.309Z,12.95
2022-11-13T01:38:01.058Z,12.20
2022-11-13T01:40:03.406Z,12.53
2022-11-13T01:42:05.289Z,12.48
2022-11-13T01:44:13.248Z,12.20
2022-11-13T01:46:26.896Z,12.07
2022-11-13T01:48:39.924Z,11.18
2022-11-13T01:50:41.758Z,11.55
2022-11-13T01:52:43.600Z,10.95
2022-11-13T01:55:03.085Z,12.07
2022-11-13T01:57:05.921Z,12.10
2022-11-13T01:59:10.661Z,13.38
2022-11-13T02:01:12.362Z,12.13
2022-11-13T02:03:14.117Z,12.77
2022-11-13T02:05:15.915Z,11.67
2022-11-13T02:07:21.570Z,11.35
2022-11-13T02:09:36.784Z,11.65
2022-11-13T02:11:39.319Z,11.75
2022-11-13T02:13:41.617Z,11.73
2022-11-13T02:15:45.692Z,11.95
2022-11-13T02:17:56.670Z,12.10
2022-11-13T02:20:02.343Z,11.45
2022-11-13T02:22:06.635Z,10.90
2022-11-13T02:24:18.016Z,11.80
2022-11-13T02:26:21.537Z,11.90
2022-11-13T02:28:23.231Z,11.50
2022-11-13T02:30:32.014Z,10.70
2022-11-13T02:32:33.740Z,11.48
2022-11-13T02:34:35.418Z,10.57
2022-11-13T02:36:37.170Z,11.40
2022-11-13T02:38:41.048Z,10.77
2022-11-13T02:40:43.040Z,10.27
2022-11-13T02:42:44.765Z,10.55
2022-11-13T02:44:46.434Z,10.80
2022-11-13T02:46:48.111Z,10.48
2022-11-13T02:48:49.925Z,10.50
2022-11-13T02:50:51.654Z,10.68
2022-11-13T02:52:53.483Z,10.70
2022-11-13T02:54:55.238Z,10.10
2022-11-13T02:56:56.938Z,9.13
2022-11-13T02:58:58.630Z,8.93
2022-11-13T03:01:02.612Z,9.73
2022-11-13T03:03:04.456Z,9.55
2022-11-13T03:05:14.248Z,8.98
2022-11-13T03:07:16.677Z,8.57
2022-11-13T03:09:18.404Z,8.68
2022-11-13T03:11:20.101Z,9.27
2022-11-13T03:13:21.961Z,8.83
2022-11-13T03:15:23.698Z,8.43
2022-11-13T03:17:26.190Z,7.78
2022-11-13T03:19:28.327Z,8.15
2022-11-13T03:21:31.377Z,8.90
2022-11-13T03:23:33.067Z,8.40
2022-11-13T03:25:35.027Z,8.50
2022-11-13T03:27:36.851Z,8.82
2022-11-13T03:29:38.735Z,9.05
2022-11-13T03:31:40.641Z,8.55
2022-11-13T03:33:42.465Z,8.52
2022-11-13T03:35:47.007Z,9.47
2022-11-13T03:37:49.023Z,8.75
2022-11-13T03:39:50.770Z,8.83
2022-11-13T03:41:52.496Z,8.90
2022-11-13T03:43:54.222Z,9.03
2022-11-13T03:45:56.037Z,8.97
2022-11-13T03:47:57.748Z,9.43
2022-11-13T03:49:59.440Z,8.87
2022-11-13T03:52:01.145Z,8.60
2022-11-13T03:54:02.965Z,8.80
2022-11-13T03:56:04.987Z,9.57
2022-11-13T03:58:06.915Z,9.07
2022-11-13T04:00:09.373Z,9.38
2022-11-13T04:02:11.091Z,9.07
2022-11-13T04:04:12.809Z,9.83
2022-11-13T04:06:14.901Z,8.20
2022-11-13T04:08:17.361Z,8.68
2022-11-13T04:10:19.297Z,8.80
2022-11-13T04:12:21.042Z,9.80
2022-11-13T04:14:22.709Z,8.90
2022-11-13T04:16:24.478Z,7.10
2022-11-13T04:18:26.579Z,10.60
2022-11-13T04:20:29.991Z,10.63
2022-11-13T04:22:31.691Z,10.95
2022-11-13T04:24:33.558Z,10.57
2022-11-13T04:26:35.216Z,11.32
2022-11-13T04:28:36.997Z,10.80
2022-11-13T04:30:39.097Z,9.60
2022-11-13T04:32:40.815Z,9.93
2022-11-13T04:34:42.528Z,11.47
2022-11-13T04:36:44.191Z,10.07
2022-11-13T04:38:45.917Z,10.77
2022-11-13T04:41:12.222Z,11.87
2022-11-13T04:43:13.961Z,10.82
2022-11-13T04:45:27.502Z,10.40
2022-11-13T04:47:29.290Z,10.32
2022-11-13T04:49:30.994Z,10.57
2022-11-13T04:51:32.886Z,11.30
2022-11-13T04:53:34.770Z,10.75
2022-11-13T04:55:36.556Z,10.77
2022-11-13T04:57:38.975Z,9.83
2022-11-13T04:59:40.715Z,9.80
2022-11-13T05:01:42.531Z,11.13
2022-11-13T05:03:44.335Z,11.02
2022-11-13T05:05:46.075Z,10.33
2022-11-13T05:07:47.785Z,10.10
2022-11-13T05:09:49.513Z,10.37
2022-11-13T05:11:51.195Z,10.73
2022-11-13T05:13:52.916Z,10.20
2022-11-13T05:16:03.832Z,10.60
2022-11-13T05:18:05.722Z,9.40
2022-11-13T05:20:07.974Z,11.30
2022-11-13T05:22:09.934Z,9.75
2022-11-13T05:24:12.198Z,10.65
2022-11-13T05:26:14.223Z,11.07
2022-11-13T05:28:15.968Z,10.48
2022-11-13T05:30:17.872Z,10.63
2022-11-13T05:32:19.590Z,10.05
2022-11-13T05:34:21.476Z,10.70
2022-11-13T05:36:23.430Z,9.60
2022-11-13T05:38:25.256Z,9.38
2022-11-13T05:40:27.151Z,10.18
2022-11-13T05:42:28.873Z,9.30
2022-11-13T05:44:30.552Z,8.60
2022-11-13T05:46:32.243Z,8.60
2022-11-13T05:48:34.741Z,9.20
2022-11-13T05:50:36.493Z,9.70
2022-11-13T05:52:38.229Z,10.10
2022-11-13T05:54:39.966Z,9.63
2022-11-13T05:56:41.908Z,9.83
2022-11-13T05:58:44.559Z,10.10
2022-11-13T06:02:48.092Z,9.32
2022-11-13T06:04:51.643Z,9.43
2022-11-13T06:06:53.565Z,9.43
2022-11-13T06:08:56.256Z,9.45
2022-11-13T06:11:02.997Z,10.60
2022-11-13T06:13:04.692Z,9.50
2022-11-13T06:15:06.781Z,10.13
2022-11-13T06:17:08.458Z,9.93
2022-11-13T06:19:11.262Z,10.67
2022-11-13T06:21:17.783Z,10.27
2022-11-13T06:23:19.513Z,9.63
2022-11-13T06:25:21.199Z,9.87
2022-11-13T06:27:22.866Z,9.53
2022-11-13T06:29:24.547Z,10.63
2022-11-13T06:31:28.634Z,10.67
2022-11-13T06:33:30.422Z,10.60
2022-11-13T06:35:32.286Z,9.93
2022-11-13T06:37:34.919Z,9.35
2022-11-13T06:41:39.608Z,10.25
2022-11-13T06:43:42.256Z,10.57
2022-11-13T06:47:45.855Z,9.93
2022-11-13T06:49:47.757Z,10.48
2022-11-13T06:51:49.436Z,10.95
2022-11-13T06:53:51.669Z,10.88
2022-11-13T06:55:53.506Z,11.02
2022-11-13T06:57:55.330Z,11.73
2022-11-13T06:59:57.070Z,11.13
2022-11-13T07:01:58.752Z,10.37
2022-11-13T07:04:00.465Z,11.87
2022-11-13T07:06:06.985Z,14.00
2022-11-13T07:08:08.750Z,11.10
2022-11-13T07:10:10.553Z,13.10
2022-11-13T07:12:12.286Z,11.90
2022-11-13T07:14:14.050Z,10.93
2022-11-13T07:16:18.170Z,10.73
2022-11-13T07:18:23.967Z,10.60
2022-11-13T07:20:26.026Z,11.23
2022-11-13T07:22:30.807Z,10.50
2022-11-13T07:24:32.497Z,11.07
2022-11-13T07:26:34.224Z,11.97
2022-11-13T07:28:36.107Z,10.43
2022-11-13T07:30:38.044Z,12.07
2022-11-13T07:32:39.814Z,11.07
2022-11-13T07:34:41.529Z,10.83
2022-11-13T07:36:43.287Z,10.47
2022-11-13T07:38:45.127Z,10.17
2022-11-13T07:40:46.812Z,10.10
2022-11-13T07:42:48.536Z,10.57
2022-11-13T07:44:54.940Z,10.17
2022-11-13T07:46:57.291Z,11.00
2022-11-13T07:48:59.066Z,11.47
2022-11-13T07:51:02.126Z,10.13
2022-11-13T07:53:07.252Z,9.95
2022-11-13T07:55:09.213Z,9.30
2022-11-13T07:57:10.907Z,10.95
2022-11-13T07:59:12.819Z,10.02
2022-11-13T08:01:14.702Z,10.82
2022-11-13T08:03:17.444Z,10.45
2022-11-13T08:05:19.643Z,10.20
2022-11-13T08:07:21.377Z,10.65
2022-11-13T08:09:23.185Z,10.03
2022-11-13T08:11:24.874Z,9.53
2022-11-13T08:13:26.616Z,8.90
2022-11-13T08:15:29.784Z,9.33
2022-11-13T08:17:31.555Z,9.55
2022-11-13T08:19:33.296Z,10.43
2022-11-13T08:21:35.802Z,10.13
2022-11-13T08:23:37.680Z,8.75
2022-11-13T08:25:39.870Z,9.32
2022-11-13T08:27:41.566Z,9.63
2022-11-13T08:29:43.304Z,9.13
2022-11-13T08:31:45.136Z,8.40
2022-11-13T08:33:46.872Z,8.77
2022-11-13T08:35:56.641Z,10.83
2022-11-13T08:38:06.313Z,9.40
2022-11-13T08:40:09.023Z,9.32
2022-11-13T08:42:10.769Z,9.93
2022-11-13T08:44:13.387Z,10.57
2022-11-13T08:48:17.242Z,9.02
2022-11-13T08:50:19.077Z,10.50
2022-11-13T08:52:20.935Z,10.33
2022-11-13T08:54:22.726Z,10.02
2022-11-13T08:56:24.441Z,10.52
2022-11-13T08:58:26.422Z,10.80
2022-11-13T09:00:30.046Z,10.63
2022-11-13T09:02:31.976Z,10.43
2022-11-13T09:04:33.689Z,12.05
2022-11-13T09:06:35.569Z,10.80
2022-11-13T09:08:37.313Z,11.40
2022-11-13T09:10:39.145Z,11.50
2022-11-13T09:12:40.877Z,11.50
2022-11-13T09:14:42.602Z,11.63
2022-11-13T09:16:44.490Z,12.27
2022-11-13T09:18:49.666Z,12.32
2022-11-13T09:20:51.442Z,10.88
2022-11-13T09:23:00.878Z,12.67
2022-11-13T09:25:02.608Z,11.30
2022-11-13T09:27:04.598Z,10.90
2022-11-13T09:29:06.426Z,11.95
2022-11-13T09:31:08.331Z,11.27
2022-11-13T09:33:10.920Z,11.52
2022-11-13T09:37:15.697Z,11.63
2022-11-13T09:39:17.393Z,12.10
2022-11-13T09:41:27.203Z,11.43
2022-11-13T09:43:33.853Z,12.38
2022-11-13T09:45:35.723Z,12.07
2022-11-13T09:47:42.403Z,11.43
2022-11-13T09:49:49.419Z,11.48
2022-11-13T09:51:57.263Z,13.00
2022-11-13T09:54:02.708Z,12.77
2022-11-13T09:56:23.927Z,11.80
2022-11-13T09:58:36.131Z,12.23
2022-11-13T10:00:38.080Z,14.65
2022-11-13T10:02:58.260Z,13.75
2022-11-13T10:05:23.580Z,19.42
2022-11-13T10:07:39.025Z,11.18
2022-11-13T10:10:01.660Z,11.63
2022-11-13T10:12:07.588Z,11.30
2022-11-13T10:14:24.700Z,11.70
2022-11-13T10:16:26.330Z,12.55
2022-11-13T10:18:34.949Z,12.70
2022-11-13T10:20:42.952Z,11.13
2022-11-13T10:22:51.706Z,10.95
2022-11-13T10:24:58.439Z,11.65
2022-11-13T10:27:00.188Z,11.10
2022-11-13T10:29:11.287Z,11.70
2022-11-13T10:31:13.646Z,11.90
2022-11-13T10:33:19.076Z,12.07
2022-11-13T10:35:23.412Z,11.07
2022-11-13T10:37:50.353Z,11.38
2022-11-13T10:39:52.078Z,11.20
2022-11-13T10:41:55.337Z,10.57
2022-11-13T10:43:59.454Z,10.73
2022-11-13T10:46:04.410Z,11.05
2022-11-13T10:48:06.284Z,10.77
2022-11-13T10:50:15.184Z,10.82
2022-11-13T10:52:28.145Z,11.30
2022-11-13T10:56:35.108Z,11.30
2022-11-13T10:58:36.836Z,11.55
2022-11-13T11:00:41.433Z,12.35
2022-11-13T11:02:49.263Z,19.27
2022-11-13T11:05:16.096Z,26.40
2022-11-13T11:07:23.310Z,13.20
2022-11-13T11:09:30.898Z,11.68
2022-11-13T11:11:51.201Z,11.02
2022-11-13T11:13:52.927Z,11.48
2022-11-13T11:15:58.834Z,10.90
2022-11-13T11:18:26.696Z,10.57
2022-11-13T11:20:50.729Z,9.95
2022-11-13T11:23:03.210Z,9.40
2022-11-13T11:25:13.276Z,10.40
2022-11-13T11:27:17.993Z,9.38
2022-11-13T11:29:28.935Z,9.05
2022-11-13T11:31:48.725Z,9.55
2022-11-13T11:34:17.936Z,9.38
2022-11-13T11:36:36.809Z,9.10
2022-11-13T11:39:12.484Z,8.52
2022-11-13T11:41:17.074Z,8.43
2022-11-13T11:43:35.108Z,9.15
2022-11-13T11:45:41.824Z,9.18
2022-11-13T11:47:44.363Z,8.98
2022-11-13T11:49:46.287Z,9.52
2022-11-13T11:52:21.570Z,9.98
2022-11-13T11:54:53.135Z,11.18
2022-11-13T11:57:06.905Z,12.77
2022-11-13T11:59:47.841Z,11.80
2022-11-13T12:02:27.512Z,10.80
2022-11-13T12:05:04.664Z,10.60
2022-11-13T12:07:15.318Z,9.98
2022-11-13T12:09:32.449Z,9.93
2022-11-13T12:11:38.102Z,9.27
2022-11-13T12:13:59.243Z,10.57
2022-11-13T12:16:25.627Z,9.57
2022-11-13T12:18:42.489Z,9.23
2022-11-13T12:21:08.490Z,9.65
2022-11-13T12:23:16.137Z,9.48
2022-11-13T12:25:47.448Z,10.00
2022-11-13T12:28:19.929Z,9.57
2022-11-13T12:30:30.288Z,9.38
2022-11-13T12:33:04.254Z,9.30
2022-11-13T12:35:19.920Z,9.98
2022-11-13T12:37:47.070Z,9.35
2022-11-13T12:40:03.521Z,9.13
2022-11-13T12:42:29.504Z,9.10
2022-11-13T12:44:41.061Z,9.10
2022-11-13T12:46:43.898Z,8.82
2022-11-13T12:48:48.086Z,8.77
2022-11-13T12:51:04.466Z,9.25
2022-11-13T12:53:12.161Z,9.10
2022-11-13T12:55:31.961Z,8.52
2022-11-13T12:57:33.716Z,9.25
2022-11-13T12:59:39.354Z,8.70
2022-11-13T13:01:52.233Z,9.23
2022-11-13T13:04:21.923Z,8.45
2022-11-13T13:06:29.758Z,8.52
2022-11-13T13:08:54.748Z,9.30
2022-11-13T13:11:03.658Z,9.52
2022-11-13T13:13:37.400Z,8.98
2022-11-13T13:15:43.019Z,9.68
2022-11-13T13:17:44.703Z,8.20
2022-11-13T13:19:58.071Z,8.88
2022-11-13T13:21:59.955Z,9.18
2022-11-13T13:24:25.639Z,9.03
2022-11-13T13:26:30.027Z,8.10
2022-11-13T13:28:32.989Z,9.07
2022-11-13T13:31:09.512Z,8.70
2022-11-13T13:33:47.110Z,8.73
2022-11-13T13:35:57.491Z,8.07
2022-11-13T13:38:21.131Z,8.23
2022-11-13T13:40:44.548Z,8.43
2022-11-13T13:42:52.053Z,8.30
2022-11-13T13:45:28.657Z,8.80
2022-11-13T13:47:49.411Z,9.70
2022-11-13T13:49:52.018Z,8.15
2022-11-13T13:51:56.459Z,9.05
2022-11-13T13:54:01.412Z,9.30
2022-11-13T13:56:04.441Z,8.63
2022-11-13T13:58:15.203Z,8.43
2022-11-13T14:00:19.179Z,8.70
2022-11-13T14:02:23.286Z,9.80
2022-11-13T14:04:28.951Z,10.27
2022-11-13T14:06:30.722Z,9.60
2022-11-13T14:08:32.710Z,11.40
2022-11-13T14:10:36.513Z,9.88
2022-11-13T14:12:42.817Z,9.18
2022-11-13T14:14:44.576Z,9.55
2022-11-13T14:16:51.643Z,8.95
2022-11-13T14:19:05.926Z,8.73
2022-11-13T14:21:17.133Z,9.32
2022-11-13T14:23:41.859Z,9.43
2022-11-13T14:25:44.985Z,9.00
2022-11-13T14:27:46.817Z,8.85
2022-11-13T14:29:51.522Z,9.00
2022-11-13T14:31:53.321Z,8.85
2022-11-13T14:33:55.373Z,9.15
2022-11-13T14:35:58.043Z,8.80
2022-11-13T14:37:59.838Z,8.82
2022-11-13T14:40:14.118Z,9.27
2022-11-13T14:42:23.080Z,10.30
2022-11-13T14:44:34.976Z,10.05
2022-11-13T14:46:45.760Z,10.02
2022-11-13T14:48:54.276Z,9.57
2022-11-13T14:51:03.392Z,9.40
2022-11-13T14:53:08.162Z,9.88
2022-11-13T14:55:41.044Z,11.98
2022-11-13T14:57:49.519Z,12.85
2022-11-13T14:59:51.252Z,16.73
2022-11-13T15:01:59.561Z,12.90
2022-11-13T15:04:01.628Z,12.75
2022-11-13T15:06:03.504Z,12.40
2022-11-13T15:08:05.743Z,11.43
2022-11-13T15:10:13.651Z,11.82
2022-11-13T15:12:15.372Z,11.18
2022-11-13T15:14:19.655Z,11.52
2022-11-13T15:16:28.345Z,11.45
2022-11-13T15:18:30.170Z,9.32
2022-11-13T15:20:32.500Z,10.37
2022-11-13T15:22:35.041Z,10.68
2022-11-13T15:24:36.846Z,10.90
2022-11-13T15:26:39.782Z,9.60
2022-11-13T15:28:41.504Z,9.48
2022-11-13T15:30:43.407Z,9.55
2022-11-13T15:32:45.375Z,9.02
2022-11-13T15:34:47.094Z,9.80
2022-11-13T15:36:48.830Z,8.77
2022-11-13T15:38:50.636Z,8.60
2022-11-13T15:40:52.356Z,8.57
2022-11-13T15:42:54.151Z,8.57
2022-11-13T15:44:55.951Z,8.23
2022-11-13T15:46:57.655Z,8.50
2022-11-13T15:48:59.384Z,8.63
2022-11-13T15:51:01.101Z,7.53
2022-11-13T15:53:05.534Z,8.23
2022-11-13T15:55:24.661Z,8.75
2022-11-13T15:57:29.089Z,9.32
2022-11-13T15:59:30.800Z,8.77
2022-11-13T16:01:32.691Z,8.73
2022-11-13T16:03:39.563Z,8.63
2022-11-13T16:05:41.370Z,8.50
2022-11-13T16:07:43.270Z,9.30
2022-11-13T16:09:45.897Z,8.93
2022-11-13T16:11:47.664Z,8.60
2022-11-13T16:13:49.539Z,9.10
2022-11-13T16:15:51.311Z,8.98
2022-11-13T16:17:57.177Z,9.17
2022-11-13T16:19:58.921Z,9.13
2022-11-13T16:22:00.681Z,9.35
2022-11-13T16:24:02.727Z,8.53
2022-11-13T16:26:05.162Z,8.63
2022-11-13T16:28:17.638Z,9.63
2022-11-13T16:30:21.903Z,10.57
2022-11-13T16:32:23.704Z,10.45
2022-11-13T16:34:25.492Z,11.23
2022-11-13T16:36:27.715Z,11.07
2022-11-13T16:38:29.470Z,11.45
2022-11-13T16:40:31.462Z,12.05
2022-11-13T16:42:33.156Z,13.32
2022-11-13T16:44:35.357Z,11.82
2022-11-13T16:46:41.620Z,15.25
2022-11-13T16:48:43.617Z,16.35
2022-11-13T16:50:45.438Z,15.25
2022-11-13T16:52:47.320Z,15.30
2022-11-13T16:54:49.073Z,16.73
2022-11-13T16:56:50.896Z,16.80
2022-11-13T16:58:52.634Z,16.47
2022-11-13T17:01:00.057Z,16.80
2022-11-13T17:03:02.039Z,16.45
2022-11-13T17:05:04.834Z,17.83
2022-11-13T17:07:06.637Z,19.67
2022-11-13T17:09:09.489Z,19.27
2022-11-13T17:11:13.751Z,20.00
2022-11-13T17:13:15.525Z,19.50
2022-11-13T17:15:17.463Z,19.80
2022-11-13T17:17:19.375Z,19.05
2022-11-13T17:19:21.417Z,19.35
2022-11-13T17:21:25.298Z,20.15
2022-11-13T17:23:27.388Z,21.50
2022-11-13T17:25:29.557Z,21.15
2022-11-13T17:27:31.322Z,21.10
2022-11-13T17:29:33.724Z,21.63
2022-11-13T17:31:35.700Z,21.92
2022-11-13T17:33:37.600Z,20.00
2022-11-13T17:35:39.313Z,19.67
2022-11-13T17:37:41.068Z,21.35
2022-11-13T17:39:42.787Z,21.98
2022-11-13T17:41:44.521Z,24.27
2022-11-13T17:43:46.323Z,23.60
2022-11-13T17:45:51.715Z,23.80
2022-11-13T17:47:53.490Z,23.60
2022-11-13T17:49:56.314Z,24.60
2022-11-13T17:51:58.138Z,26.08
2022-11-13T17:54:00.477Z,26.57
2022-11-13T17:56:05.175Z,26.15
2022-11-13T17:58:07.071Z,27.05
2022-11-13T18:00:09.527Z,25.30
2022-11-13T18:02:11.979Z,25.60
2022-11-13T18:04:13.822Z,26.40
2022-11-13T18:06:19.769Z,28.03
2022-11-13T18:08:21.812Z,28.77
2022-11-13T18:10:23.540Z,27.70
2022-11-13T18:12:25.294Z,28.07
2022-11-13T18:14:27.389Z,28.73
2022-11-13T18:16:34.544Z,30.75
2022-11-13T18:18:36.491Z,31.58
2022-11-13T18:20:40.323Z,30.17
2022-11-13T18:22:42.046Z,30.52
2022-11-13T18:24:44.086Z,31.07
2022-11-13T18:26:46.325Z,30.17
2022-11-13T18:28:48.092Z,31.45
2022-11-13T18:30:56.128Z,34.00
2022-11-13T18:32:58.240Z,35.83
2022-11-13T18:35:00.077Z,50.72
2022-11-13T18:37:01.839Z,49.70
2022-11-13T18:39:04.186Z,49.00
2022-11-13T18:41:11.864Z,49.67
2022-11-13T18:43:15.084Z,49.10
2022-11-13T18:45:16.941Z,55.17
2022-11-13T18:47:18.914Z,56.97
2022-11-13T18:49:20.970Z,51.03
2022-11-13T18:51:28.547Z,45.20
2022-11-13T18:53:31.215Z,41.83
2022-11-13T18:55:33.330Z,40.60
2022-11-13T18:57:35.089Z,40.67
2022-11-13T18:59:36.870Z,40.20
2022-11-13T19:01:39.933Z,38.17
2022-11-13T19:04:01.293Z,36.63
2022-11-13T19:06:07.005Z,31.77
2022-11-13T19:08:08.741Z,28.60
2022-11-13T19:10:10.563Z,27.43
2022-11-13T19:12:12.423Z,23.85
2022-11-13T19:14:16.025Z,24.23
2022-11-13T19:16:20.475Z,23.27
2022-11-13T19:18:22.446Z,20.27
2022-11-13T19:20:24.183Z,19.10
2022-11-13T19:22:25.911Z,15.57
2022-11-13T19:24:27.652Z,14.30
2022-11-13T19:26:29.673Z,15.77
2022-11-13T19:28:31.658Z,14.38
2022-11-13T19:30:34.752Z,17.23
2022-11-13T19:32:36.506Z,19.50
2022-11-13T19:34:41.284Z,21.67
2022-11-13T19:36:49.393Z,24.10
2022-11-13T19:38:52.675Z,23.40
2022-11-13T19:40:54.407Z,22.35
2022-11-13T19:42:56.144Z,20.27
2022-11-13T19:44:57.878Z,17.57
2022-11-13T19:46:59.628Z,18.67
2022-11-13T19:49:01.409Z,16.50
2022-11-13T19:51:09.671Z,17.23
2022-11-13T19:53:11.397Z,15.32
2022-11-13T19:55:13.211Z,14.30
2022-11-13T19:57:14.942Z,13.07
2022-11-13T19:59:16.726Z,12.47
2022-11-13T20:01:26.226Z,13.00
2022-11-13T20:03:29.116Z,12.40
2022-11-13T20:05:30.848Z,12.05
2022-11-13T20:07:32.717Z,12.50
2022-11-13T20:09:34.647Z,14.00
2022-11-13T20:11:37.108Z,12.23
2022-11-13T20:13:39.445Z,12.98
2022-11-13T20:15:41.207Z,13.02
2022-11-13T20:17:43.061Z,12.00
2022-11-13T20:19:44.752Z,12.25
2022-11-13T20:21:46.525Z,12.40
2022-11-13T20:23:48.200Z,12.40
2022-11-13T20:25:58.651Z,12.30
2022-11-13T20:28:00.374Z,12.75
2022-11-13T20:30:02.088Z,12.07
2022-11-13T20:32:03.877Z,12.47
2022-11-13T20:34:05.718Z,12.80
2022-11-13T20:36:08.032Z,11.38
2022-11-13T20:38:10.389Z,11.88
2022-11-13T20:40:12.214Z,11.98
2022-11-13T20:42:14.019Z,12.38
2022-11-13T20:44:15.834Z,11.88
2022-11-13T20:46:19.895Z,13.05
2022-11-13T20:48:21.618Z,12.00
2022-11-13T20:50:23.533Z,11.87
2022-11-13T20:52:25.246Z,11.48
2022-11-13T20:54:27.406Z,10.80
2022-11-13T20:56:29.300Z,11.90
2022-11-13T20:58:31.928Z,11.48
2022-11-13T21:00:33.894Z,11.02
2022-11-13T21:02:35.644Z,12.57
2022-11-13T21:04:37.309Z,12.63
2022-11-13T21:06:39.128Z,11.40
2022-11-13T21:08:40.994Z,12.07
2022-11-13T21:10:42.747Z,12.45
2022-11-13T21:12:44.507Z,12.07
2022-11-13T21:14:46.300Z,11.50
2022-11-13T21:16:47.987Z,12.13
2022-11-13T21:18:49.914Z,11.23
2022-11-13T21:20:52.053Z,12.60
2022-11-13T21:22:53.868Z,12.52
2022-11-13T21:24:55.577Z,13.00
2022-11-13T21:26:57.356Z,11.73
2022-11-13T21:29:00.237Z,11.53
2022-11-13T21:31:02.934Z,11.90
2022-11-13T21:33:04.650Z,11.77
2022-11-13T21:35:06.538Z,12.30
2022-11-13T21:37:08.553Z,12.73
2022-11-13T21:39:10.335Z,11.68
2022-11-13T21:41:23.806Z,10.97
2022-11-13T21:43:25.566Z,11.45
2022-11-13T21:45:27.278Z,12.37
2022-11-13T21:47:29.017Z,12.47
2022-11-13T21:49:30.729Z,11.47
2022-11-13T21:51:35.152Z,12.33
2022-11-13T21:53:37.465Z,12.45
2022-11-13T21:55:39.356Z,12.70
2022-11-13T21:57:41.094Z,11.80
2022-11-13T21:59:42.775Z,11.43
2022-11-13T22:01:44.498Z,11.47
2022-11-13T22:03:46.364Z,12.90
2022-11-13T22:05:48.070Z,13.60
2022-11-13T22:07:49.762Z,12.80
2022-11-13T22:09:51.588Z,13.30
2022-11-13T22:11:53.374Z,13.23
2022-11-13T22:13:55.871Z,12.45
2022-11-13T22:15:57.940Z,12.07
2022-11-13T22:17:59.645Z,12.70
2022-11-13T22:20:01.425Z,12.32
2022-11-13T22:22:03.284Z,13.37
2022-11-13T22:24:05.920Z,12.40
2022-11-13T22:28:16.360Z,12.85
2022-11-13T22:30:18.078Z,12.88
2022-11-13T22:32:19.793Z,12.30
2022-11-13T22:34:21.609Z,12.93
2022-11-13T22:36:31.849Z,13.15
2022-11-13T22:38:34.786Z,13.60
2022-11-13T22:40:36.550Z,13.68
2022-11-13T22:42:38.235Z,12.27
2022-11-13T22:44:54.896Z,13.73
2022-11-13T22:46:57.448Z,12.95
2022-11-13T22:49:01.763Z,12.57
2022-11-13T22:51:07.787Z,12.77
2022-11-13T22:53:10.821Z,12.40
2022-11-13T22:55:12.676Z,12.95
2022-11-13T22:57:14.423Z,12.88
2022-11-13T22:59:16.211Z,13.53
2022-11-13T23:01:20.839Z,16.50
2022-11-13T23:03:22.910Z,13.18
2022-11-13T23:05:24.755Z,13.20
2022-11-13T23:07:26.525Z,13.60
2022-11-13T23:09:29.078Z,12.63
2022-11-13T23:11:34.040Z,13.00
2022-11-13T23:13:35.868Z,13.60
2022-11-13T23:15:37.586Z,13.63
2022-11-13T23:17:39.304Z,15.20
2022-11-13T23:19:41.042Z,12.60
2022-11-13T23:21:45.611Z,12.63
2022-11-13T23:23:47.494Z,12.07
2022-11-13T23:25:49.235Z,13.90
2022-11-13T23:27:51.009Z,14.40
2022-11-13T23:29:53.804Z,12.90
2022-11-13T23:31:55.580Z,12.32
2022-11-13T23:33:57.363Z,13.03
2022-11-13T23:35:59.133Z,13.60
2022-11-13T23:38:00.849Z,13.97
2022-11-13T23:40:02.566Z,13.40
2022-11-13T23:42:04.281Z,12.90
2022-11-13T23:44:09.093Z,12.30
2022-11-13T23:46:11.574Z,12.45
2022-11-13T23:48:13.342Z,12.50
2022-11-13T23:50:15.115Z,12.63
2022-11-13T23:52:16.854Z,12.40
2022-11-13T23:54:18.566Z,13.03
2022-11-13T23:56:20.339Z,11.97
2022-11-13T23:58:22.499Z,13.10
